Agate Bay, California
Current Conditions -  °F | °C
As of 3:15 AM on Saturday 20 Dec 2014 (Local Time) from KTRK Reporting Station
Broken Clouds Broken Clouds  
Wind Chill: 32°   Ceiling: 4300
Heat Index: 36°   Visibility: 10mi
Dew Point: 32°   Wind: 5mph
Humidity: 87%   Direction: 150°SSE
Pressure: 30.1"   Gusts: NA
Location:  39.2392°N, 120.102°W
Report Text: KTRK 201115Z AUTO 15004KT 10SM SCT024 SCT036 BKN043 02/00 A3010 RMK AO2
Loading
Personal Weather Stations






























Interactive Weather Map New forecast layout! Learn more

10-Day Weather Forecast

Advertisements
Track Severe Weather on mobile